QFA1A WSSS-EGLL
Flight info
| Callsign | QFA1A |
|---|---|
| Flight time | N/A |
| Altitude | 34000 |
| Route | AROSO5B AROSO Y513 KALIL Y501 RINBA Y503 VPL P628 KAGUL/N0505F360 P628 RK G202 ZB L750 GODSI/N0499F380 L750 RANAH B449 ETRAP B447 KRS B143 TUNEK A909 RODAR M11 REBLO UM11 CRM UL746 INB/N0496F400 UL746 ODERO DCT OPT DCT SOKRU DCT BEGLA DCT DEXIT DCT INBED DCT BOMBI DCT ADKUV DCT SOGRI DCT DENUT L608 LOGAN |
| Aircraft | A388/J-SADE2E3FGHIJ3J4J5M1RWXY/LB1D1 |
Departure
| Time | 2026-05-04 07:19 |
|---|---|
| Airport | Singapore Changi Airport (WSSS) |
Arrival
| Time | N/A |
|---|---|
| Airport | London Heathrow Airport (EGLL) |
| Time | Latitude | Longitude | Altitude | Speed | Heading |
|---|---|---|---|---|---|
| 2026-05-04 07:04 | 1.36241 | 103.99336 | 35 ft | 0 kts | 292° |
| 2026-05-04 07:12 | 1.36240 | 103.99338 | 35 ft | 2 kts | 292° |
| 2026-05-04 07:13 | 1.36230 | 103.99362 | 34 ft | 4 kts | 293° |
| 2026-05-04 07:13 | 1.36220 | 103.99383 | 31 ft | 4 kts | 302° |
| 2026-05-04 07:13 | 1.36206 | 103.99397 | 31 ft | 4 kts | 338° |
| 2026-05-04 07:14 | 1.36158 | 103.99383 | 33 ft | 0 kts | 22° |
| 2026-05-04 07:15 | 1.36159 | 103.99383 | 33 ft | 1 kts | 22° |
| 2026-05-04 07:16 | 1.36173 | 103.99389 | 32 ft | 4 kts | 22° |
| 2026-05-04 07:16 | 1.36210 | 103.99404 | 32 ft | 8 kts | 22° |
| 2026-05-04 07:16 | 1.36268 | 103.99429 | 35 ft | 11 kts | 22° |
| 2026-05-04 07:16 | 1.36331 | 103.99468 | 35 ft | 10 kts | 66° |
| 2026-05-04 07:17 | 1.36338 | 103.99539 | 35 ft | 11 kts | 107° |
| 2026-05-04 07:17 | 1.36311 | 103.99613 | 35 ft | 12 kts | 112° |
| 2026-05-04 07:17 | 1.36278 | 103.99691 | 35 ft | 13 kts | 112° |
| 2026-05-04 07:17 | 1.36243 | 103.99775 | 35 ft | 13 kts | 114° |
| 2026-05-04 07:18 | 1.36207 | 103.99852 | 35 ft | 11 kts | 127° |
| 2026-05-04 07:18 | 1.36150 | 103.99874 | 35 ft | 9 kts | 194° |
| 2026-05-04 07:18 | 1.36135 | 103.99869 | 35 ft | 0 kts | 201° |
| 2026-05-04 07:18 | 1.35958 | 103.99796 | 35 ft | 63 kts | 203° |
| 2026-05-04 07:19 | 1.35347 | 103.99540 | 35 ft | 126 kts | 202° |
| 2026-05-04 07:19 | 1.34393 | 103.99145 | 37 ft | 167 kts | 203° |
| 2026-05-04 07:19 | 1.33265 | 103.98684 | 349 ft | 174 kts | 201° |
| 2026-05-04 07:19 | 1.32176 | 103.98259 | 948 ft | 167 kts | 201° |
| 2026-05-04 07:20 | 1.31051 | 103.97803 | 1205 ft | 182 kts | 204° |
| 2026-05-04 07:20 | 1.29841 | 103.97268 | 1342 ft | 197 kts | 205° |
| 2026-05-04 07:20 | 1.28549 | 103.96690 | 1443 ft | 210 kts | 204° |
| 2026-05-04 07:20 | 1.27157 | 103.96076 | 1619 ft | 231 kts | 204° |
| 2026-05-04 07:22 | 1.16506 | 104.00389 | 5116 ft | 280 kts | 117° |
| 2026-05-04 07:22 | 1.15992 | 104.02259 | 5717 ft | 281 kts | 90° |
| 2026-05-04 07:23 | 1.16348 | 104.04137 | 6291 ft | 282 kts | 64° |
| 2026-05-04 07:23 | 1.17447 | 104.05769 | 6836 ft | 284 kts | 50° |
| 2026-05-04 07:23 | 1.18738 | 104.07277 | 7410 ft | 286 kts | 48° |
| 2026-05-04 07:23 | 1.20197 | 104.08637 | 7921 ft | 288 kts | 30° |
| 2026-05-04 07:24 | 1.22079 | 104.09308 | 8455 ft | 289 kts | 5° |
| 2026-05-04 07:24 | 1.24074 | 104.09101 | 8977 ft | 291 kts | 339° |
| 2026-05-04 07:24 | 1.25868 | 104.08207 | 9499 ft | 293 kts | 329° |
| 2026-05-04 07:24 | 1.27640 | 104.07174 | 10022 ft | 295 kts | 329° |
| 2026-05-04 07:25 | 1.29449 | 104.06117 | 10237 ft | 308 kts | 330° |
| 2026-05-04 07:26 | 1.44086 | 103.97998 | 12727 ft | 362 kts | 332° |
| 2026-05-04 07:27 | 1.46307 | 103.96774 | 13174 ft | 365 kts | 332° |
| 2026-05-04 07:27 | 1.48543 | 103.95541 | 13626 ft | 368 kts | 332° |
| 2026-05-04 07:27 | 1.50798 | 103.94298 | 14030 ft | 371 kts | 332° |
| 2026-05-04 07:27 | 1.53039 | 103.93062 | 14446 ft | 373 kts | 332° |
| 2026-05-04 07:28 | 1.55327 | 103.91801 | 14844 ft | 376 kts | 332° |
| 2026-05-04 07:28 | 1.57628 | 103.90532 | 15222 ft | 379 kts | 332° |
| 2026-05-04 07:28 | 1.59954 | 103.89249 | 15658 ft | 381 kts | 332° |
| 2026-05-04 07:28 | 1.62288 | 103.87962 | 16046 ft | 384 kts | 332° |
| 2026-05-04 07:29 | 1.64637 | 103.86667 | 16457 ft | 387 kts | 332° |
| 2026-05-04 07:29 | 1.66976 | 103.85377 | 16836 ft | 390 kts | 332° |
| 2026-05-04 07:29 | 1.69356 | 103.84064 | 17232 ft | 392 kts | 332° |
| 2026-05-04 07:29 | 1.71757 | 103.82740 | 17607 ft | 395 kts | 332° |
| 2026-05-04 07:30 | 1.74173 | 103.81408 | 17978 ft | 397 kts | 332° |
| 2026-05-04 07:30 | 1.76606 | 103.80066 | 18318 ft | 399 kts | 332° |
| 2026-05-04 07:30 | 1.79046 | 103.78720 | 18646 ft | 401 kts | 332° |
| 2026-05-04 07:30 | 1.81473 | 103.77381 | 18964 ft | 403 kts | 332° |
| 2026-05-04 07:31 | 1.83944 | 103.76018 | 19290 ft | 405 kts | 332° |
| 2026-05-04 07:31 | 1.86419 | 103.74653 | 19602 ft | 407 kts | 332° |
| 2026-05-04 07:33 | 1.99897 | 103.59707 | 21743 ft | 424 kts | 308° |
| 2026-05-04 07:33 | 2.01709 | 103.57357 | 22037 ft | 426 kts | 308° |
| 2026-05-04 07:33 | 2.03522 | 103.55001 | 22327 ft | 428 kts | 308° |
| 2026-05-04 07:33 | 2.05326 | 103.52657 | 22597 ft | 430 kts | 308° |
| 2026-05-04 07:34 | 2.07156 | 103.50277 | 22880 ft | 432 kts | 308° |
| 2026-05-04 07:34 | 2.08998 | 103.47882 | 23152 ft | 434 kts | 308° |
| 2026-05-04 07:34 | 2.10824 | 103.45509 | 23416 ft | 436 kts | 308° |
| 2026-05-04 07:34 | 2.12665 | 103.43079 | 23644 ft | 438 kts | 305° |
| 2026-05-04 07:35 | 2.14239 | 103.40459 | 23878 ft | 440 kts | 297° |
| 2026-05-04 07:35 | 2.15442 | 103.37674 | 24115 ft | 442 kts | 289° |
| 2026-05-04 07:35 | 2.16332 | 103.34716 | 24345 ft | 443 kts | 286° |
| 2026-05-04 07:35 | 2.17184 | 103.31751 | 24569 ft | 445 kts | 287° |
| 2026-05-04 07:36 | 2.18060 | 103.28765 | 24803 ft | 446 kts | 287° |
| 2026-05-04 07:36 | 2.18942 | 103.25773 | 25032 ft | 448 kts | 287° |
| 2026-05-04 07:38 | 2.25141 | 103.04631 | 26683 ft | 458 kts | 286° |
| 2026-05-04 07:38 | 2.26041 | 103.01557 | 26926 ft | 460 kts | 286° |
| 2026-05-04 07:38 | 2.26930 | 102.98519 | 27175 ft | 461 kts | 286° |
| 2026-05-04 07:38 | 2.27835 | 102.95426 | 27425 ft | 463 kts | 286° |
| 2026-05-04 07:39 | 2.28743 | 102.92323 | 27686 ft | 465 kts | 286° |
| 2026-05-04 07:39 | 2.29656 | 102.89203 | 27953 ft | 466 kts | 286° |
| 2026-05-04 07:39 | 2.30570 | 102.86080 | 28221 ft | 468 kts | 286° |
| 2026-05-04 07:39 | 2.31475 | 102.82985 | 28489 ft | 470 kts | 286° |
| 2026-05-04 07:40 | 2.32396 | 102.79835 | 28785 ft | 472 kts | 286° |
| 2026-05-04 07:40 | 2.33323 | 102.76666 | 29072 ft | 474 kts | 286° |
| 2026-05-04 07:40 | 2.34254 | 102.73484 | 29352 ft | 476 kts | 286° |
| 2026-05-04 07:40 | 2.35186 | 102.70297 | 29630 ft | 479 kts | 286° |
| 2026-05-04 07:41 | 2.36113 | 102.67128 | 29953 ft | 480 kts | 286° |
| 2026-05-04 07:41 | 2.37059 | 102.63893 | 30214 ft | 482 kts | 286° |
| 2026-05-04 07:41 | 2.38000 | 102.60672 | 30525 ft | 483 kts | 287° |
| 2026-05-04 07:41 | 2.38949 | 102.57429 | 30772 ft | 486 kts | 287° |
| 2026-05-04 07:42 | 2.39887 | 102.54220 | 31060 ft | 487 kts | 287° |
| 2026-05-04 07:42 | 2.40839 | 102.50961 | 31329 ft | 489 kts | 287° |
| 2026-05-04 07:42 | 2.41798 | 102.47680 | 31631 ft | 491 kts | 287° |
| 2026-05-04 07:42 | 2.42760 | 102.44390 | 31915 ft | 493 kts | 287° |
| 2026-05-04 07:43 | 2.43724 | 102.41091 | 32203 ft | 494 kts | 287° |
| 2026-05-04 07:43 | 2.44689 | 102.37833 | 32468 ft | 496 kts | 289° |
| 2026-05-04 07:43 | 2.46081 | 102.34679 | 32716 ft | 497 kts | 301° |
| 2026-05-04 07:43 | 2.48064 | 102.31850 | 32990 ft | 497 kts | 312° |
| 2026-05-04 07:44 | 2.50549 | 102.29462 | 33258 ft | 497 kts | 323° |
| 2026-05-04 07:44 | 2.53295 | 102.27346 | 33509 ft | 499 kts | 323° |
| 2026-05-04 07:44 | 2.56056 | 102.25192 | 33790 ft | 501 kts | 323° |
| 2026-05-04 07:44 | 2.58776 | 102.23058 | 33858 ft | 507 kts | 323° |
| 2026-05-04 07:45 | 2.64366 | 102.18664 | 33859 ft | 509 kts | 323° |
| 2026-05-04 07:45 | 2.69938 | 102.14288 | 33862 ft | 509 kts | 323° |
| 2026-05-04 07:46 | 2.75482 | 102.09936 | 33863 ft | 509 kts | 323° |
| 2026-05-04 07:46 | 2.81064 | 102.05553 | 33862 ft | 509 kts | 323° |
| 2026-05-04 07:47 | 2.86607 | 102.01202 | 33858 ft | 509 kts | 323° |
| 2026-05-04 07:49 | 3.08931 | 101.83668 | 33874 ft | 511 kts | 323° |
| 2026-05-04 07:49 | 3.14542 | 101.79259 | 33882 ft | 511 kts | 323° |
| 2026-05-04 07:50 | 3.20121 | 101.74875 | 33885 ft | 511 kts | 323° |
| 2026-05-04 07:50 | 3.25727 | 101.70469 | 33886 ft | 511 kts | 323° |
| 2026-05-04 07:51 | 3.31347 | 101.66138 | 33881 ft | 511 kts | 327° |
| 2026-05-04 07:51 | 3.37563 | 101.62696 | 33888 ft | 510 kts | 338° |
| 2026-05-04 07:52 | 3.44041 | 101.59844 | 33887 ft | 510 kts | 337° |
| 2026-05-04 07:52 | 3.50539 | 101.56945 | 33886 ft | 510 kts | 337° |
| 2026-05-04 07:54 | 3.76447 | 101.45413 | 33875 ft | 510 kts | 337° |
| 2026-05-04 07:55 | 3.82940 | 101.42524 | 33878 ft | 510 kts | 337° |
| 2026-05-04 07:55 | 3.89423 | 101.39638 | 33916 ft | 512 kts | 337° |
| 2026-05-04 07:56 | 3.95958 | 101.36732 | 33894 ft | 512 kts | 337° |
| 2026-05-04 07:56 | 4.02435 | 101.33852 | 33884 ft | 511 kts | 337° |
| 2026-05-04 07:57 | 4.08921 | 101.30966 | 33890 ft | 510 kts | 337° |
| 2026-05-04 07:57 | 4.15426 | 101.28072 | 33864 ft | 511 kts | 336° |
| 2026-05-04 07:58 | 4.20842 | 101.25662 | 33879 ft | 512 kts | 337° |
| 2026-05-04 07:58 | 4.28432 | 101.22283 | 33878 ft | 512 kts | 337° |
| 2026-05-04 07:59 | 4.34923 | 101.19392 | 33888 ft | 513 kts | 337° |
| 2026-05-04 07:59 | 4.40366 | 101.16969 | 33887 ft | 513 kts | 337° |
| 2026-05-04 08:00 | 4.46912 | 101.14053 | 33890 ft | 514 kts | 337° |
| 2026-05-04 08:02 | 4.73042 | 101.02633 | 33894 ft | 511 kts | 338° |
| 2026-05-04 08:02 | 4.79592 | 100.99809 | 33890 ft | 510 kts | 338° |
| 2026-05-04 08:03 | 4.86079 | 100.97011 | 33894 ft | 510 kts | 338° |
| 2026-05-04 08:03 | 4.92603 | 100.94194 | 33899 ft | 510 kts | 338° |
| 2026-05-04 08:04 | 4.99133 | 100.91376 | 33898 ft | 509 kts | 338° |
| 2026-05-04 08:04 | 5.05614 | 100.88579 | 33899 ft | 509 kts | 338° |
| 2026-05-04 08:05 | 5.12144 | 100.85758 | 33889 ft | 509 kts | 338° |
| 2026-05-04 08:05 | 5.18615 | 100.82964 | 33888 ft | 509 kts | 338° |
| 2026-05-04 08:06 | 5.25132 | 100.80147 | 33880 ft | 509 kts | 338° |
| 2026-05-04 08:06 | 5.31613 | 100.77343 | 33878 ft | 509 kts | 336° |
| 2026-05-04 08:08 | 5.50559 | 100.61235 | 33870 ft | 516 kts | 315° |
| 2026-05-04 08:08 | 5.53082 | 100.58670 | 33868 ft | 516 kts | 315° |
| 2026-05-04 08:11 | 5.75608 | 100.35701 | 33881 ft | 509 kts | 315° |
| 2026-05-04 08:11 | 5.83051 | 100.28105 | 33860 ft | 507 kts | 315° |
| 2026-05-04 08:12 | 5.87964 | 100.23090 | 33843 ft | 506 kts | 315° |
| 2026-05-04 08:12 | 5.92890 | 100.18060 | 33864 ft | 504 kts | 314° |
| 2026-05-04 08:13 | 5.97815 | 100.13028 | 33843 ft | 503 kts | 314° |
| 2026-05-04 08:13 | 6.02720 | 100.08015 | 33822 ft | 502 kts | 315° |
| 2026-05-04 08:14 | 6.07589 | 100.03040 | 33823 ft | 502 kts | 315° |
| 2026-05-04 08:16 | 6.27239 | 99.82944 | 33852 ft | 505 kts | 315° |
| 2026-05-04 08:16 | 6.32112 | 99.77885 | 33839 ft | 507 kts | 310° |
| 2026-05-04 08:17 | 6.36105 | 99.72026 | 33830 ft | 507 kts | 297° |
| 2026-05-04 08:17 | 6.38783 | 99.65517 | 33856 ft | 507 kts | 290° |
| 2026-05-04 08:19 | 6.48643 | 99.39023 | 33807 ft | 506 kts | 290° |
| 2026-05-04 08:20 | 6.51115 | 99.32362 | 33817 ft | 507 kts | 290° |
| 2026-05-04 08:20 | 6.53574 | 99.25731 | 33831 ft | 509 kts | 290° |
| 2026-05-04 08:21 | 6.56061 | 99.19024 | 33850 ft | 511 kts | 290° |
| 2026-05-04 08:21 | 6.58539 | 99.12340 | 33860 ft | 512 kts | 290° |
| 2026-05-04 08:22 | 6.61035 | 99.05603 | 33840 ft | 513 kts | 290° |
| 2026-05-04 08:24 | 6.71028 | 98.78600 | 33865 ft | 516 kts | 290° |
| 2026-05-04 08:24 | 6.73529 | 98.71832 | 33860 ft | 515 kts | 290° |
| 2026-05-04 08:25 | 6.76015 | 98.65103 | 33845 ft | 515 kts | 290° |
| 2026-05-04 08:25 | 6.78513 | 98.58339 | 33854 ft | 511 kts | 290° |
| 2026-05-04 08:27 | 6.88296 | 98.31812 | 33848 ft | 508 kts | 290° |
| 2026-05-04 08:28 | 6.90760 | 98.25124 | 33853 ft | 509 kts | 290° |
| 2026-05-04 08:28 | 6.93210 | 98.18469 | 33859 ft | 509 kts | 290° |
| 2026-05-04 08:29 | 6.95679 | 98.11762 | 33858 ft | 509 kts | 290° |
| 2026-05-04 08:31 | 7.12839 | 97.90522 | 33843 ft | 510 kts | 324° |
| 2026-05-04 08:33 | 7.35738 | 97.73550 | 33854 ft | 513 kts | 324° |
| 2026-05-04 08:35 | 7.58758 | 97.56478 | 33862 ft | 513 kts | 324° |
| 2026-05-04 08:35 | 7.64476 | 97.52235 | 33857 ft | 512 kts | 324° |
| 2026-05-04 08:37 | 7.84530 | 97.37373 | 33836 ft | 510 kts | 324° |
| 2026-05-04 08:38 | 7.90257 | 97.33126 | 33836 ft | 510 kts | 324° |
| 2026-05-04 08:38 | 7.95989 | 97.28872 | 33834 ft | 511 kts | 324° |
| 2026-05-04 08:40 | 8.12461 | 97.10516 | 33847 ft | 512 kts | 301° |
| 2026-05-04 08:40 | 8.14323 | 97.07432 | 33843 ft | 512 kts | 301° |
| 2026-05-04 08:41 | 8.18031 | 97.01283 | 33852 ft | 512 kts | 301° |
| 2026-05-04 08:41 | 8.21711 | 96.95164 | 33852 ft | 512 kts | 301° |
| 2026-05-04 08:42 | 8.25422 | 96.88985 | 33854 ft | 513 kts | 301° |
| 2026-05-04 08:42 | 8.29097 | 96.82863 | 33838 ft | 513 kts | 301° |
| 2026-05-04 08:43 | 8.32806 | 96.76683 | 33837 ft | 514 kts | 301° |
| 2026-05-04 08:43 | 8.36517 | 96.70498 | 33841 ft | 515 kts | 301° |
| 2026-05-04 08:44 | 8.40233 | 96.64299 | 33845 ft | 515 kts | 301° |
| 2026-05-04 08:46 | 8.55085 | 96.39502 | 33843 ft | 517 kts | 302° |
| 2026-05-04 08:46 | 8.58793 | 96.33303 | 33847 ft | 518 kts | 302° |
| 2026-05-04 08:47 | 8.62510 | 96.27086 | 33857 ft | 519 kts | 302° |
| 2026-05-04 08:47 | 8.66249 | 96.20831 | 33858 ft | 519 kts | 302° |
| 2026-05-04 08:48 | 8.69993 | 96.14564 | 33877 ft | 518 kts | 301° |
| 2026-05-04 08:48 | 8.73700 | 96.08356 | 33878 ft | 518 kts | 301° |
| 2026-05-04 08:49 | 8.77429 | 96.02109 | 33849 ft | 517 kts | 301° |
| 2026-05-04 08:50 | 8.90411 | 95.80308 | 33849 ft | 517 kts | 301° |
| 2026-05-04 08:51 | 8.94100 | 95.74107 | 33850 ft | 517 kts | 301° |
| 2026-05-04 08:51 | 8.97820 | 95.67851 | 33852 ft | 518 kts | 301° |
| 2026-05-04 08:52 | 9.01517 | 95.61630 | 33852 ft | 518 kts | 301° |
| 2026-05-04 08:52 | 9.05238 | 95.55365 | 33853 ft | 518 kts | 301° |
| 2026-05-04 08:54 | 9.19995 | 95.30491 | 33895 ft | 513 kts | 301° |
| 2026-05-04 08:55 | 9.23659 | 95.24308 | 33878 ft | 511 kts | 301° |
| 2026-05-04 08:55 | 9.27319 | 95.18128 | 33866 ft | 509 kts | 301° |
| 2026-05-04 09:01 | 9.64732 | 94.54778 | 33848 ft | 510 kts | 301° |
| 2026-05-04 09:01 | 9.68351 | 94.48633 | 33849 ft | 511 kts | 301° |
| 2026-05-04 09:02 | 9.72310 | 94.42627 | 33857 ft | 511 kts | 310° |
| 2026-05-04 09:02 | 9.77263 | 94.37517 | 33866 ft | 511 kts | 321° |
| 2026-05-04 09:03 | 9.82710 | 94.32860 | 33845 ft | 512 kts | 320° |
| 2026-05-04 09:03 | 9.88128 | 94.28182 | 33852 ft | 513 kts | 320° |
| 2026-05-04 09:04 | 9.93592 | 94.23471 | 33858 ft | 514 kts | 320° |
| 2026-05-04 09:04 | 9.99049 | 94.18768 | 33866 ft | 514 kts | 320° |
| 2026-05-04 09:05 | 10.04480 | 94.14086 | 33876 ft | 514 kts | 320° |
| 2026-05-04 09:05 | 10.09940 | 94.09376 | 33870 ft | 514 kts | 320° |
| 2026-05-04 09:06 | 10.15360 | 94.04698 | 33866 ft | 513 kts | 320° |
| 2026-05-04 09:08 | 10.36988 | 93.86013 | 33847 ft | 507 kts | 320° |
| 2026-05-04 09:08 | 10.42337 | 93.81386 | 33845 ft | 506 kts | 320° |
| 2026-05-04 09:09 | 10.47707 | 93.76739 | 33814 ft | 507 kts | 320° |
| 2026-05-04 09:09 | 10.53054 | 93.72110 | 33822 ft | 508 kts | 320° |
| 2026-05-04 09:10 | 10.58457 | 93.67430 | 33884 ft | 507 kts | 319° |
| 2026-05-04 09:10 | 10.63808 | 93.62792 | 33879 ft | 506 kts | 319° |
| 2026-05-04 09:11 | 10.69169 | 93.58144 | 33870 ft | 505 kts | 319° |
| 2026-05-04 09:11 | 10.74495 | 93.53524 | 33868 ft | 504 kts | 319° |
| 2026-05-04 09:12 | 10.79838 | 93.48887 | 33855 ft | 503 kts | 319° |
| 2026-05-04 09:14 | 11.01084 | 93.30427 | 33851 ft | 502 kts | 318° |
| 2026-05-04 09:14 | 11.06403 | 93.25799 | 33850 ft | 502 kts | 318° |
| 2026-05-04 09:15 | 11.11691 | 93.21197 | 33857 ft | 502 kts | 318° |
| 2026-05-04 09:15 | 11.17009 | 93.16566 | 33856 ft | 502 kts | 318° |
| 2026-05-04 09:17 | 11.40827 | 92.95796 | 33880 ft | 498 kts | 317° |
| 2026-05-04 09:18 | 11.46094 | 92.91197 | 33869 ft | 496 kts | 317° |
| 2026-05-04 09:18 | 11.51313 | 92.86637 | 33843 ft | 495 kts | 317° |
| 2026-05-04 09:19 | 11.56538 | 92.82069 | 33833 ft | 494 kts | 317° |
| 2026-05-04 09:19 | 11.61756 | 92.77506 | 33812 ft | 493 kts | 317° |
| 2026-05-04 09:20 | 11.66739 | 92.72775 | 33807 ft | 491 kts | 311° |
| 2026-05-04 09:20 | 11.71391 | 92.67654 | 33809 ft | 492 kts | 311° |
| 2026-05-04 09:21 | 11.76078 | 92.62543 | 33810 ft | 493 kts | 311° |
| 2026-05-04 09:21 | 11.80774 | 92.57416 | 33821 ft | 494 kts | 311° |
| 2026-05-04 09:22 | 11.85451 | 92.52303 | 33835 ft | 495 kts | 311° |
| 2026-05-04 09:22 | 11.90158 | 92.47152 | 33851 ft | 496 kts | 311° |
| 2026-05-04 09:23 | 11.94842 | 92.42023 | 33856 ft | 496 kts | 311° |
| 2026-05-04 09:23 | 11.99564 | 92.36849 | 33859 ft | 496 kts | 311° |
| 2026-05-04 09:25 | 12.18413 | 92.16170 | 33846 ft | 498 kts | 311° |
| 2026-05-04 09:26 | 12.23115 | 92.11004 | 33849 ft | 499 kts | 311° |
| 2026-05-04 09:26 | 12.27854 | 92.05795 | 33855 ft | 499 kts | 311° |
| 2026-05-04 09:27 | 12.32590 | 92.00586 | 33856 ft | 500 kts | 311° |
| 2026-05-04 09:27 | 12.37302 | 91.95401 | 33858 ft | 500 kts | 311° |
| 2026-05-04 09:28 | 12.42048 | 91.90174 | 33873 ft | 499 kts | 311° |
| 2026-05-04 09:28 | 12.46777 | 91.84964 | 33858 ft | 499 kts | 311° |